Weather History for KOLU - November, 2013

Change the Weather History Date:

Tuesday, November 26, 2013

  Actual Average Record
Temperature  
Mean Temperature 20 °F -  
Max Temperature 28 °F 38 °F 69 °F (1960)
Min Temperature 12 °F 21 °F -4 °F (1993)
Degree Days  
Heating Degree Days 45    
Moisture  
Dew Point 11 °F    
Average Humidity 58    
Maximum Humidity 74    
Minimum Humidity 37    
Precipitation  
Precipitation 0.00 in - - ()
Sea Level Pressure  
Sea Level Pressure 30.34 in    
Wind  
Wind Speed 12 mph (NW)    
Max Wind Speed 29 mph    
Max Gust Speed 36 mph    
Visibility 10 miles    
Events      
Averages and records for this station are not official NWS values.
T = Trace of Precipitation, MM = Missing Value Source: NWS Daily Summary

Daily Weather History Graph

Daily Weather History Graph

Search for Another Location

Airport or City:

Trip Planner

Search our weather history database for the weather conditions in past years. The results will help you decide how hot, cold, wet, or windy it might be!

Date:

Astronomy

Nov. 26, 2013 Rise Set
Actual Time 7:31 AM CST 5:02 PM CST
Civil Twilight 7:00 AM CST 5:32 PM CST
Nautical Twilight 6:26 AM CST 6:06 PM CST
Astronomical Twilight 5:53 AM CST 6:40 PM CST
Moon 12:31 AM CST (11/26) 1:13 PM CST (11/26)
Length of Visible Light 10h 32m
Length of Day
9h 31m
Last Quarter, 41% of the Moon is Illuminated
Nov 26
Last Quarter
Dec 2
New
Dec 9
First Quarter
Dec 17
Full
Dec 25
Last Quarter

Hourly Weather History & Observations

Time (CST) Temp. Windchill Dew Point Humidity Pressure Visibility Wind Dir Wind Speed Gust Speed Precip Events Conditions
12:15 AM 28.4 °F 21.2 °F 19.4 °F 69% 30.22 in 10.0 mi WNW 6.9 mph - N/A   Clear
12:35 AM 28.4 °F 22.2 °F 19.4 °F 69% 30.21 in 10.0 mi WNW 5.8 mph - N/A   Clear
12:55 AM 24.8 °F 16.9 °F 17.6 °F 74% 30.21 in 10.0 mi WNW 6.9 mph - N/A   Clear
1:15 AM 26.6 °F 18.2 °F 17.6 °F 69% 30.21 in 10.0 mi NW 8.1 mph - N/A   Clear
1:35 AM 26.6 °F 17.5 °F 19.4 °F 74% 30.22 in 10.0 mi WNW 9.2 mph - N/A   Clear
1:55 AM 26.6 °F 18.2 °F 17.6 °F 69% 30.22 in 10.0 mi WNW 8.1 mph - N/A   Clear
2:15 AM 24.8 °F 16.9 °F 17.6 °F 74% 30.22 in 10.0 mi WNW 6.9 mph - N/A   Clear
2:35 AM 24.8 °F 15.3 °F 17.6 °F 74% 30.22 in 10.0 mi WNW 9.2 mph - N/A   Clear
2:55 AM 24.8 °F 19.1 °F 17.6 °F 74% 30.22 in 10.0 mi West 4.6 mph - N/A   Clear
3:15 AM 23.0 °F 14.7 °F 15.8 °F 74% 30.22 in 10.0 mi WNW 6.9 mph - N/A   Clear
3:35 AM 24.8 °F 16.1 °F 17.6 °F 74% 30.22 in 10.0 mi WNW 8.1 mph - N/A   Clear
3:55 AM 23.0 °F 15.8 °F 15.8 °F 74% 30.23 in 10.0 mi WNW 5.8 mph - N/A   Clear
4:15 AM 24.8 °F 15.3 °F 15.8 °F 69% 30.23 in 10.0 mi NW 9.2 mph - N/A   Clear
4:35 AM 26.6 °F 16.2 °F 17.6 °F 69% 30.23 in 10.0 mi NW 11.5 mph - N/A   Clear
4:55 AM 26.6 °F 16.8 °F 17.6 °F 69% 30.24 in 10.0 mi NW 10.4 mph - N/A   Mostly Cloudy
5:15 AM 26.6 °F 16.2 °F 19.4 °F 74% 30.25 in 10.0 mi WNW 11.5 mph - N/A   Mostly Cloudy
5:35 AM 26.6 °F 16.2 °F 19.4 °F 74% 30.26 in 10.0 mi WNW 11.5 mph - N/A   Overcast
5:55 AM 28.4 °F 18.5 °F 19.4 °F 69% 30.26 in 10.0 mi WNW 11.5 mph - N/A   Overcast
6:15 AM 28.4 °F 18.5 °F 19.4 °F 69% 30.26 in 10.0 mi NW 11.5 mph - N/A   Overcast
6:35 AM 28.4 °F 18.0 °F 19.4 °F 69% 30.27 in 10.0 mi NW 12.7 mph - N/A   Overcast
6:55 AM 28.4 °F 17.5 °F 19.4 °F 69% 30.28 in 10.0 mi NW 13.8 mph 18.4 mph N/A   Overcast
7:15 AM 28.4 °F 17.5 °F 19.4 °F 69% 30.30 in 10.0 mi NW 13.8 mph - N/A   Overcast
7:35 AM 28.4 °F 13.8 °F 19.4 °F 69% 30.30 in 10.0 mi NW 25.3 mph 29.9 mph N/A   Overcast
7:55 AM 28.4 °F 17.5 °F 17.6 °F 64% 30.31 in 10.0 mi NNW 13.8 mph 21.9 mph N/A   Scattered Clouds
8:15 AM 28.4 °F 16.6 °F 17.6 °F 64% 30.33 in 10.0 mi NW 16.1 mph 20.7 mph N/A   Mostly Cloudy
8:35 AM 26.6 °F 13.1 °F 17.6 °F 69% 30.34 in 10.0 mi NW 19.6 mph 25.3 mph N/A   Mostly Cloudy
8:55 AM 28.4 °F 15.4 °F 17.6 °F 64% 30.35 in 10.0 mi NNW 19.6 mph 25.3 mph N/A   Clear
9:15 AM 28.4 °F 14.7 °F 15.8 °F 59% 30.37 in 10.0 mi NNW 21.9 mph 32.2 mph N/A   Clear
9:35 AM 28.4 °F 14.1 °F 14.0 °F 55% 30.38 in 10.0 mi NW 24.2 mph 32.2 mph N/A   Clear
9:55 AM 28.4 °F 14.4 °F 14.0 °F 55% 30.38 in 10.0 mi NW 23.0 mph 28.8 mph N/A   Clear
10:15 AM 28.4 °F 13.0 °F 12.2 °F 51% 30.39 in 10.0 mi NW 28.8 mph 33.4 mph N/A   Clear
10:35 AM 28.4 °F 13.8 °F 10.4 °F 47% 30.40 in 10.0 mi NW 25.3 mph 34.5 mph N/A   Clear
10:55 AM 28.4 °F 13.5 °F 10.4 °F 47% 30.40 in 10.0 mi NW 26.5 mph 32.2 mph N/A   Clear
11:15 AM 28.4 °F 15.4 °F 10.4 °F 47% 30.40 in 10.0 mi NW 19.6 mph 28.8 mph N/A   Clear
11:35 AM 28.4 °F 15.4 °F 10.4 °F 47% 30.40 in 10.0 mi NNW 19.6 mph 27.6 mph N/A   Clear
11:55 AM 28.4 °F 14.1 °F 8.6 °F 43% 30.40 in 10.0 mi NW 24.2 mph 29.9 mph N/A   Clear
12:15 PM 28.4 °F 13.5 °F 6.8 °F 40% 30.39 in 10.0 mi NW 26.5 mph 35.7 mph N/A   Clear
12:35 PM 28.4 °F 14.7 °F 8.6 °F 43% 30.39 in 10.0 mi NNW 21.9 mph 29.9 mph N/A   Clear
12:55 PM 28.4 °F 15.1 °F 8.6 °F 43% 30.39 in 10.0 mi NW 20.7 mph 31.1 mph N/A   Clear
1:15 PM 28.4 °F 15.1 °F 6.8 °F 40% 30.38 in 10.0 mi NNW 20.7 mph 29.9 mph N/A   Clear
1:35 PM 28.4 °F 15.4 °F 6.8 °F 40% 30.38 in 10.0 mi NNW 19.6 mph 29.9 mph N/A   Clear
1:55 PM 28.4 °F 15.4 °F 6.8 °F 40% 30.37 in 10.0 mi NNW 19.6 mph 26.5 mph N/A   Clear
2:15 PM 28.4 °F 15.8 °F 6.8 °F 40% 30.37 in 10.0 mi NNW 18.4 mph 27.6 mph N/A   Clear
2:35 PM 28.4 °F 14.4 °F 5.0 °F 37% 30.37 in 10.0 mi NW 23.0 mph 27.6 mph N/A   Clear
2:55 PM 28.4 °F 14.7 °F 5.0 °F 37% 30.37 in 10.0 mi NW 21.9 mph 33.4 mph N/A   Clear
3:15 PM 28.4 °F 15.8 °F 5.0 °F 37% 30.38 in 10.0 mi NNW 18.4 mph 26.5 mph N/A   Clear
3:35 PM 28.4 °F 15.8 °F 6.8 °F 40% 30.38 in 10.0 mi North 18.4 mph 27.6 mph N/A   Clear
3:55 PM 28.4 °F 15.4 °F 5.0 °F 37% 30.37 in 10.0 mi NW 19.6 mph 25.3 mph N/A   Clear
4:15 PM 26.6 °F 13.1 °F 5.0 °F 40% 30.37 in 10.0 mi NW 19.6 mph 26.5 mph N/A   Clear
4:35 PM 26.6 °F 13.8 °F 5.0 °F 40% 30.38 in 10.0 mi NNW 17.3 mph 23.0 mph N/A   Clear
4:55 PM 24.8 °F 12.4 °F 5.0 °F 43% 30.39 in 10.0 mi NNW 15.0 mph 20.7 mph N/A   Clear
5:15 PM 24.8 °F 12.9 °F 5.0 °F 43% 30.39 in 10.0 mi NNW 13.8 mph - N/A   Clear
5:35 PM 24.8 °F 14.6 °F 6.8 °F 46% 30.39 in 10.0 mi NNW 10.4 mph - N/A   Clear
5:55 PM 23.0 °F 13.9 °F 6.8 °F 50% 30.40 in 10.0 mi NNW 8.1 mph - N/A   Clear
6:15 PM 21.2 °F 10.1 °F 6.8 °F 54% 30.39 in 10.0 mi NNW 10.4 mph - N/A   Clear
6:35 PM 21.2 °F 12.6 °F 6.8 °F 54% 30.40 in 10.0 mi NNW 6.9 mph - N/A   Clear
6:55 PM 21.2 °F 13.6 °F 6.8 °F 54% 30.40 in 10.0 mi NNW 5.8 mph - N/A   Clear
7:15 PM 19.4 °F 11.5 °F 6.8 °F 58% 30.41 in 10.0 mi NW 5.8 mph - N/A   Clear
7:35 PM 19.4 °F 14.3 °F 6.8 °F 58% 30.41 in 10.0 mi West 3.5 mph - N/A   Clear
7:55 PM 19.4 °F 11.5 °F 6.8 °F 58% 30.42 in 10.0 mi WNW 5.8 mph - N/A   Clear
8:15 PM 15.8 °F 8.6 °F 5.0 °F 62% 30.42 in 10.0 mi NW 4.6 mph - N/A   Clear
8:35 PM 15.8 °F 10.2 °F 5.0 °F 62% 30.42 in 10.0 mi WNW 3.5 mph - N/A   Clear
8:55 PM 17.6 °F 12.3 °F 5.0 °F 58% 30.42 in 10.0 mi WNW 3.5 mph - N/A   Clear
9:15 PM 15.8 °F 10.2 °F 5.0 °F 62% 30.41 in 10.0 mi WNW 3.5 mph - N/A   Clear
9:35 PM 15.8 °F 10.2 °F 5.0 °F 62% 30.42 in 10.0 mi West 3.5 mph - N/A   Clear
9:55 PM 15.8 °F 6.1 °F 6.8 °F 68% 30.42 in 10.0 mi WNW 6.9 mph - N/A   Clear
10:15 PM 15.8 °F 10.2 °F 5.0 °F 62% 30.42 in 10.0 mi West 3.5 mph - N/A   Clear
10:35 PM 14.0 °F 6.5 °F 3.2 °F 62% 30.42 in 10.0 mi WNW 4.6 mph - N/A   Clear
10:55 PM 14.0 °F 8.2 °F 5.0 °F 67% 30.42 in 10.0 mi WNW 3.5 mph - N/A   Clear
11:15 PM 12.2 °F 6.1 °F 3.2 °F 67% 30.42 in 10.0 mi WNW 3.5 mph - N/A   Clear
11:35 PM 12.2 °F 4.3 °F 3.2 °F 67% 30.42 in 10.0 mi West 4.6 mph - N/A   Clear
11:55 PM 12.2 °F - 3.2 °F 67% 30.42 in 10.0 mi Calm Calm - N/A   Clear